Time,TemperatureF,DewpointF,PressureIn,WindDirection,WindDirectionDegrees,WindSpeedMPH,WindSpeedGustMPH,Humidity,HourlyPrecipIn,Conditions,Clouds,dailyrainin,SoftwareType,DateUTC
2013-08-24 00:12:00,63.0,56.0,-100.00,SE,135,1.0,1.0,79,-99.99,,,-99.99,,2013-08-24 07:12:00,
2013-08-24 00:22:00,63.0,56.0,-100.00,SW,225,0.0,3.0,78,-99.99,,,-99.99,,2013-08-24 07:22:00,
2013-08-24 00:43:00,63.0,57.0,-100.00,SW,225,2.0,4.0,80,-99.99,,,-99.99,,2013-08-24 07:43:00,
2013-08-24 00:53:00,64.0,58.0,-100.00,SW,225,4.0,8.0,81,-99.99,,,-99.99,,2013-08-24 07:53:00,
2013-08-24 01:12:00,64.0,57.0,-100.00,SW,225,3.0,6.0,80,-99.99,,,-99.99,,2013-08-24 08:12:00,
2013-08-24 01:22:00,64.0,58.0,-100.00,SW,225,4.0,9.0,81,-99.99,,,-99.99,,2013-08-24 08:22:00,
2013-08-24 01:42:00,64.0,58.0,-100.00,South,180,2.0,4.0,82,-99.99,,,-99.99,,2013-08-24 08:42:00,
2013-08-24 01:52:00,63.0,58.0,-100.00,South,180,2.0,4.0,81,-99.99,,,-99.99,,2013-08-24 08:52:00,
2013-08-24 02:11:00,63.0,57.0,-100.00,SW,225,3.0,6.0,81,-99.99,,,-99.99,,2013-08-24 09:11:00,
2013-08-24 02:22:00,63.0,57.0,-100.00,East,90,1.0,3.0,81,-99.99,,,-99.99,,2013-08-24 09:22:00,
2013-08-24 02:44:00,63.0,57.0,-100.00,South,180,1.0,4.0,81,-99.99,,,-99.99,,2013-08-24 09:44:00,
2013-08-24 02:53:00,63.0,57.0,-100.00,SW,225,4.0,7.0,80,-99.99,,,-99.99,,2013-08-24 09:53:00,
2013-08-24 03:13:00,63.0,57.0,-100.00,SW,225,3.0,6.0,79,-99.99,,,-99.99,,2013-08-24 10:13:00,
2013-08-24 03:23:00,64.0,57.0,-100.00,SW,225,4.0,7.0,78,-99.99,,,-99.99,,2013-08-24 10:23:00,
2013-08-24 03:42:00,64.0,57.0,-100.00,South,180,4.0,6.0,78,-99.99,,,-99.99,,2013-08-24 10:42:00,
2013-08-24 03:53:00,64.0,57.0,-100.00,SW,225,3.0,7.0,77,-99.99,,,-99.99,,2013-08-24 10:53:00,
2013-08-24 04:12:00,64.0,57.0,-100.00,SW,225,4.0,9.0,78,-99.99,,,-99.99,,2013-08-24 11:12:00,
2013-08-24 04:22:00,64.0,57.0,-100.00,South,180,4.0,8.0,79,-99.99,,,-99.99,,2013-08-24 11:22:00,
2013-08-24 04:42:00,64.0,57.0,-100.00,SW,225,4.0,9.0,79,-99.99,,,-99.99,,2013-08-24 11:42:00,
2013-08-24 04:52:00,64.0,58.0,-100.00,South,180,2.0,11.0,80,-99.99,,,-99.99,,2013-08-24 11:52:00,
2013-08-24 05:11:00,64.0,58.0,-100.00,South,180,2.0,13.0,80,-99.99,,,-99.99,,2013-08-24 12:11:00,
2013-08-24 05:21:00,63.0,58.0,-100.00,SW,225,3.0,8.0,82,-99.99,,,-99.99,,2013-08-24 12:21:00,
2013-08-24 05:42:00,63.0,58.0,-100.00,South,180,4.0,10.0,82,-99.99,,,-99.99,,2013-08-24 12:42:00,
2013-08-24 05:52:00,63.0,57.0,-100.00,South,180,4.0,11.0,82,-99.99,,,-99.99,,2013-08-24 12:52:00,
2013-08-24 06:11:00,63.0,57.0,-100.00,South,180,4.0,8.0,83,-99.99,,,-99.99,,2013-08-24 13:11:00,
2013-08-24 06:22:00,63.0,58.0,-100.00,SW,225,4.0,11.0,83,-99.99,,,-99.99,,2013-08-24 13:22:00,
2013-08-24 06:42:00,63.0,58.0,-100.00,South,180,5.0,10.0,82,-99.99,,,-99.99,,2013-08-24 13:42:00,
2013-08-24 06:52:00,63.0,58.0,-100.00,South,180,4.0,11.0,82,-99.99,,,-99.99,,2013-08-24 13:52:00,
2013-08-24 07:11:00,63.0,57.0,-100.00,South,180,4.0,10.0,82,-99.99,,,-99.99,,2013-08-24 14:11:00,
2013-08-24 07:22:00,63.0,57.0,-100.00,South,180,6.0,9.0,82,-99.99,,,-99.99,,2013-08-24 14:22:00,
2013-08-24 07:42:00,63.0,58.0,-100.00,SW,225,4.0,11.0,82,-99.99,,,-99.99,,2013-08-24 14:42:00,
2013-08-24 07:52:00,63.0,58.0,-100.00,SW,225,4.0,8.0,82,-99.99,,,-99.99,,2013-08-24 14:52:00,
2013-08-24 08:11:00,63.0,58.0,-100.00,SW,225,4.0,10.0,83,-99.99,,,-99.99,,2013-08-24 15:11:00,
2013-08-24 08:22:00,63.0,58.0,-100.00,South,180,4.0,8.0,84,-99.99,,,-99.99,,2013-08-24 15:22:00,
2013-08-24 08:45:00,63.0,58.0,-100.00,South,180,2.0,6.0,83,-99.99,,,-99.99,,2013-08-24 15:45:00,
2013-08-24 08:54:00,63.0,58.0,-100.00,South,180,6.0,12.0,83,-99.99,,,-99.99,,2013-08-24 15:54:00,
2013-08-24 09:13:00,64.0,58.0,-100.00,South,180,6.0,12.0,81,-99.99,,,-99.99,,2013-08-24 16:13:00,
2013-08-24 09:23:00,64.0,58.0,-100.00,SW,225,6.0,12.0,81,-99.99,,,-99.99,,2013-08-24 16:23:00,
2013-08-24 09:42:00,65.0,58.0,-100.00,SW,225,6.0,11.0,79,-99.99,,,-99.99,,2013-08-24 16:42:00,
2013-08-24 09:53:00,65.0,58.0,-100.00,SW,225,7.0,14.0,78,-99.99,,,-99.99,,2013-08-24 16:53:00,
2013-08-24 10:12:00,66.0,58.0,-100.00,SW,225,7.0,12.0,77,-99.99,,,-99.99,,2013-08-24 17:12:00,
2013-08-24 10:23:00,66.0,58.0,-100.00,SW,225,8.0,12.0,75,-99.99,,,-99.99,,2013-08-24 17:23:00,
2013-08-24 10:42:00,66.0,58.0,-100.00,SW,225,7.0,12.0,75,-99.99,,,-99.99,,2013-08-24 17:42:00,
2013-08-24 10:52:00,67.0,58.0,-100.00,SW,225,7.0,11.0,71,-99.99,,,-99.99,,2013-08-24 17:52:00,
2013-08-24 11:13:00,68.0,58.0,-100.00,SW,225,8.0,12.0,71,-99.99,,,-99.99,,2013-08-24 18:13:00,
2013-08-24 11:22:00,68.0,58.0,-100.00,SW,225,7.0,12.0,68,-99.99,,,-99.99,,2013-08-24 18:22:00,
2013-08-24 11:42:00,68.0,58.0,-100.00,SW,225,9.0,19.0,69,-99.99,,,-99.99,,2013-08-24 18:42:00,
2013-08-24 11:53:00,69.0,58.0,-100.00,SW,225,6.0,17.0,67,-99.99,,,-99.99,,2013-08-24 18:53:00,
2013-08-24 12:12:00,69.0,56.0,-100.00,South,180,8.0,16.0,63,-99.99,,,-99.99,,2013-08-24 19:12:00,
2013-08-24 12:21:00,70.0,55.0,-100.00,SW,225,9.0,17.0,60,-99.99,,,-99.99,,2013-08-24 19:21:00,
2013-08-24 12:42:00,70.0,57.0,-100.00,SW,225,9.0,14.0,63,-99.99,,,-99.99,,2013-08-24 19:42:00,
2013-08-24 12:52:00,72.0,55.0,-100.00,SW,225,6.0,17.0,55,-99.99,,,-99.99,,2013-08-24 19:52:00,
2013-08-24 13:11:00,72.0,55.0,-100.00,North,0,3.0,16.0,55,-99.99,,,-99.99,,2013-08-24 20:11:00,
2013-08-24 13:22:00,72.0,54.0,-100.00,SW,225,7.0,16.0,53,-99.99,,,-99.99,,2013-08-24 20:22:00,
2013-08-24 13:42:00,71.0,55.0,-100.00,NW,315,3.0,19.0,56,-99.99,,,-99.99,,2013-08-24 20:42:00,
2013-08-24 13:52:00,72.0,55.0,-100.00,SW,225,9.0,17.0,56,-99.99,,,-99.99,,2013-08-24 20:52:00,
2013-08-24 14:11:00,72.0,56.0,-100.00,SW,225,7.0,17.0,56,-99.99,,,-99.99,,2013-08-24 21:11:00,
2013-08-24 14:22:00,74.0,55.0,-100.00,SW,225,7.0,13.0,52,-99.99,,,-99.99,,2013-08-24 21:22:00,
2013-08-24 14:43:00,73.0,55.0,-100.00,SW,225,8.0,21.0,53,-99.99,,,-99.99,,2013-08-24 21:43:00,
2013-08-24 14:55:00,73.0,55.0,-100.00,SW,225,9.0,19.0,54,-99.99,,,-99.99,,2013-08-24 21:55:00,
2013-08-24 15:14:00,72.0,54.0,-100.00,SW,225,7.0,17.0,53,-99.99,,,-99.99,,2013-08-24 22:14:00,
2013-08-24 15:23:00,73.0,53.0,-100.00,SW,225,6.0,14.0,50,-99.99,,,-99.99,,2013-08-24 22:23:00,
2013-08-24 15:43:00,74.0,54.0,-100.00,SW,225,4.0,15.0,49,-99.99,,,-99.99,,2013-08-24 22:43:00,
2013-08-24 15:53:00,75.0,54.0,-100.00,SW,225,6.0,14.0,47,-99.99,,,-99.99,,2013-08-24 22:53:00,
2013-08-24 16:12:00,74.0,54.0,-100.00,SW,225,9.0,17.0,49,-99.99,,,-99.99,,2013-08-24 23:12:00,
2013-08-24 16:22:00,75.0,52.0,-100.00,SW,225,7.0,15.0,45,-99.99,,,-99.99,,2013-08-24 23:22:00,
2013-08-24 16:42:00,76.0,53.0,-100.00,SW,225,8.0,12.0,45,-99.99,,,-99.99,,2013-08-24 23:42:00,
2013-08-24 16:53:00,75.0,53.0,-100.00,SW,225,8.0,13.0,47,-99.99,,,-99.99,,2013-08-24 23:53:00,
2013-08-24 17:11:00,75.0,53.0,-100.00,SW,225,3.0,12.0,46,-99.99,,,-99.99,,2013-08-25 00:11:00,
2013-08-24 17:22:00,75.0,52.0,-100.00,SW,225,6.0,12.0,44,-99.99,,,-99.99,,2013-08-25 00:22:00,
2013-08-24 17:42:00,75.0,51.0,-100.00,SW,225,5.0,11.0,43,-99.99,,,-99.99,,2013-08-25 00:42:00,
2013-08-24 17:52:00,75.0,52.0,-100.00,SW,225,7.0,14.0,44,-99.99,,,-99.99,,2013-08-25 00:52:00,
2013-08-24 18:11:00,75.0,51.0,-100.00,SW,225,3.0,17.0,42,-99.99,,,-99.99,,2013-08-25 01:11:00,
2013-08-24 18:22:00,75.0,51.0,-100.00,SW,225,7.0,13.0,43,-99.99,,,-99.99,,2013-08-25 01:22:00,
2013-08-24 18:42:00,74.0,52.0,-100.00,North,-999,-999.0,-999.0,46,-99.99,,,-99.99,,2013-08-25 01:42:00,
2013-08-24 18:52:00,74.0,53.0,-100.00,North,0,2.0,9.0,47,-99.99,,,-99.99,,2013-08-25 01:52:00,
2013-08-24 19:11:00,74.0,52.0,-100.00,North,0,1.0,11.0,46,-99.99,,,-99.99,,2013-08-25 02:11:00,
2013-08-24 19:22:00,74.0,52.0,-100.00,South,180,4.0,9.0,47,-99.99,,,-99.99,,2013-08-25 02:22:00,
2013-08-24 19:42:00,73.0,53.0,-100.00,SW,225,3.0,10.0,50,-99.99,,,-99.99,,2013-08-25 02:42:00,
2013-08-24 19:52:00,72.0,53.0,-100.00,South,180,3.0,6.0,52,-99.99,,,-99.99,,2013-08-25 02:52:00,
2013-08-24 20:11:00,72.0,54.0,-100.00,South,180,3.0,4.0,54,-99.99,,,-99.99,,2013-08-25 03:11:00,
2013-08-24 20:23:00,71.0,55.0,-100.00,South,180,2.0,4.0,56,-99.99,,,-99.99,,2013-08-25 03:23:00,
2013-08-24 20:44:00,70.0,54.0,-100.00,South,180,3.0,4.0,57,-99.99,,,-99.99,,2013-08-25 03:44:00,
2013-08-24 20:54:00,69.0,54.0,-100.00,South,180,3.0,4.0,59,-99.99,,,-99.99,,2013-08-25 03:54:00,
2013-08-24 21:02:00,-999.0,-99.9,-100.00,South,180,2.0,4.0,-999,-99.99,,,-99.99,,2013-08-25 04:02:00,
2013-08-24 21:14:00,69.0,54.0,-100.00,South,180,2.0,4.0,59,-99.99,,,-99.99,,2013-08-25 04:14:00,
2013-08-24 21:25:00,68.0,54.0,-100.00,South,180,2.0,4.0,62,-99.99,,,-99.99,,2013-08-25 04:25:00,
2013-08-24 21:43:00,68.0,53.0,-100.00,South,180,4.0,6.0,58,-99.99,,,-99.99,,2013-08-25 04:43:00,
2013-08-24 21:54:00,69.0,53.0,-100.00,South,180,4.0,8.0,57,-99.99,,,-99.99,,2013-08-25 04:54:00,
2013-08-24 22:12:00,69.0,53.0,-100.00,East,90,1.0,4.0,57,-99.99,,,-99.99,,2013-08-25 05:12:00,
2013-08-24 22:22:00,68.0,54.0,-100.00,NE,45,1.0,3.0,62,-99.99,,,-99.99,,2013-08-25 05:22:00,
2013-08-24 22:42:00,66.0,54.0,-100.00,SE,135,1.0,1.0,65,-99.99,,,-99.99,,2013-08-25 05:42:00,
2013-08-24 22:52:00,66.0,54.0,-100.00,South,180,1.0,3.0,66,-99.99,,,-99.99,,2013-08-25 05:52:00,
2013-08-24 23:12:00,65.0,54.0,-100.00,East,90,1.0,3.0,68,-99.99,,,-99.99,,2013-08-25 06:12:00,
2013-08-24 23:22:00,64.0,54.0,-100.00,East,90,1.0,3.0,70,-99.99,,,-99.99,,2013-08-25 06:22:00,
2013-08-24 23:43:00,64.0,54.0,-100.00,East,90,2.0,3.0,71,-99.99,,,-99.99,,2013-08-25 06:43:00,
2013-08-24 23:52:00,63.0,54.0,-100.00,South,180,0.0,2.0,72,-99.99,,,-99.99,,2013-08-25 06:52:00,